createdAt,value
2018-12-10T00:00:55.737Z,0
2018-12-10T00:01:55.964Z,0
2018-12-10T00:02:56.225Z,0
2018-12-10T00:03:55.965Z,0
2018-12-10T00:04:56.254Z,0
2018-12-10T00:05:56.186Z,0
2018-12-10T00:06:56.177Z,0
2018-12-10T00:07:56.167Z,0
2018-12-10T00:08:56.175Z,0
2018-12-10T00:09:55.673Z,0
2018-12-10T00:10:55.900Z,0
2018-12-10T00:11:55.650Z,0
2018-12-10T00:12:56.128Z,0
2018-12-10T00:13:55.887Z,0
2018-12-10T00:14:56.128Z,0
2018-12-10T00:15:55.656Z,0
2018-12-10T00:16:56.129Z,0
2018-12-10T00:17:55.875Z,0
2018-12-10T00:18:56.185Z,0
2018-12-10T00:19:55.843Z,0
2018-12-10T00:20:55.860Z,0
2018-12-10T00:21:56.065Z,0
2018-12-10T00:22:55.568Z,0
2018-12-10T00:23:55.842Z,0
2018-12-10T00:24:55.562Z,0
2018-12-10T00:25:56.017Z,0
2018-12-10T00:26:56.127Z,0
2018-12-10T00:27:55.779Z,0
2018-12-10T00:28:56.003Z,0
2018-12-10T00:29:55.502Z,0
2018-12-10T00:30:56.019Z,0
2018-12-10T00:31:55.986Z,0
2018-12-10T00:32:56.002Z,0
2018-12-10T00:33:55.992Z,0
2018-12-10T00:34:55.735Z,0
2018-12-10T00:35:55.731Z,0
2018-12-10T00:36:55.717Z,0
2018-12-10T00:37:55.929Z,0
2018-12-10T00:38:55.950Z,0
2018-12-10T00:39:55.441Z,0
2018-12-10T00:40:55.687Z,0
2018-12-10T00:41:55.654Z,0
2018-12-10T00:42:55.685Z,0
2018-12-10T00:43:55.387Z,0
2018-12-10T00:44:55.891Z,0
2018-12-10T00:45:55.396Z,0
2018-12-10T00:46:55.886Z,0
2018-12-10T00:47:55.617Z,0
2018-12-10T00:48:55.863Z,0
2018-12-10T00:49:55.833Z,0
2018-12-10T00:50:55.382Z,0
2018-12-10T00:51:55.589Z,0
2018-12-10T00:52:55.858Z,0
2018-12-10T00:53:55.347Z,0
2018-12-10T00:54:55.566Z,0
2018-12-10T00:55:55.543Z,0
2018-12-10T00:56:55.796Z,0
2018-12-10T00:57:55.270Z,0
2018-12-10T00:58:55.267Z,0
2018-12-10T00:59:55.780Z,0
2018-12-10T01:00:55.502Z,0
2018-12-10T01:01:55.499Z,0
2018-12-10T01:02:55.744Z,0
2018-12-10T01:03:55.842Z,0
2018-12-10T01:04:55.722Z,0
2018-12-10T01:05:55.727Z,0
2018-12-10T01:06:55.447Z,0
2018-12-10T01:07:55.300Z,0
2018-12-10T01:08:55.533Z,0
2018-12-10T01:09:55.442Z,0
2018-12-10T01:10:55.666Z,0
2018-12-10T01:11:55.424Z,0
2018-12-10T01:12:55.462Z,0
2018-12-10T01:13:55.408Z,0
2018-12-10T01:14:55.631Z,0
2018-12-10T01:15:55.376Z,0
2018-12-10T01:16:55.531Z,0
2018-12-10T01:17:55.118Z,0
2018-12-10T01:18:55.734Z,0
2018-12-10T01:19:55.347Z,0
2018-12-10T01:20:55.345Z,0
2018-12-10T01:21:55.335Z,0
2018-12-10T01:22:55.566Z,0
2018-12-10T01:23:55.566Z,0
2018-12-10T01:24:55.312Z,0
2018-12-10T01:25:55.545Z,0
2018-12-10T01:26:55.547Z,0
2018-12-10T01:27:55.278Z,0
2018-12-10T01:28:55.318Z,0
2018-12-10T01:29:55.508Z,0
2018-12-10T01:30:55.390Z,0
2018-12-10T01:31:55.494Z,0
2018-12-10T01:32:55.255Z,0
2018-12-10T01:33:55.226Z,0
2018-12-10T01:34:55.480Z,0
2018-12-10T01:35:55.483Z,0
2018-12-10T01:36:55.455Z,0
2018-12-10T01:37:54.970Z,0
2018-12-10T01:38:55.212Z,0
2018-12-10T01:39:55.431Z,0
2018-12-10T01:40:55.417Z,0
2018-12-10T01:41:54.928Z,0
2018-12-10T01:42:55.483Z,0
2018-12-10T01:43:55.416Z,0
2018-12-10T01:44:55.148Z,0
2018-12-10T01:45:55.401Z,0
2018-12-10T01:46:55.392Z,0
2018-12-10T01:47:55.376Z,0
2018-12-10T01:48:55.130Z,0
2018-12-10T01:49:55.439Z,0
2018-12-10T01:50:55.352Z,0
2018-12-10T01:51:55.100Z,0
2018-12-10T01:52:55.078Z,0
2018-12-10T01:53:55.098Z,0
2018-12-10T01:54:55.078Z,0
2018-12-10T01:55:55.076Z,0
2018-12-10T01:56:55.087Z,0
2018-12-10T01:57:55.037Z,0
2018-12-10T01:58:55.034Z,0
2018-12-10T01:59:55.023Z,0
2018-12-10T02:00:55.020Z,0
2018-12-10T02:01:55.038Z,0
2018-12-10T02:02:55.250Z,0
2018-12-10T02:03:54.759Z,0
2018-12-10T02:04:54.762Z,0
2018-12-10T02:05:55.226Z,0
2018-12-10T02:06:54.721Z,0
2018-12-10T02:07:54.955Z,0
2018-12-10T02:08:55.241Z,0
2018-12-10T02:09:55.193Z,0
2018-12-10T02:10:54.939Z,0
2018-12-10T02:11:55.172Z,0
2018-12-10T02:12:55.172Z,0
2018-12-10T02:13:54.926Z,0
2018-12-10T02:14:55.160Z,0
2018-12-10T02:15:54.394Z,0
2018-12-10T02:16:54.394Z,0
2018-12-10T02:17:54.631Z,0
2018-12-10T02:18:55.132Z,0
2018-12-10T02:19:55.114Z,0
2018-12-10T02:20:54.983Z,0
2018-12-10T02:21:55.094Z,0
2018-12-10T02:22:55.086Z,0
2018-12-10T02:23:54.845Z,0
2018-12-10T02:24:55.080Z,0
2018-12-10T02:25:54.826Z,0
2018-12-10T02:26:55.070Z,0
2018-12-10T02:27:54.557Z,0
2018-12-10T02:28:54.798Z,0
2018-12-10T02:29:54.799Z,0
2018-12-10T02:30:54.820Z,0
2018-12-10T02:31:54.797Z,0
2018-12-10T02:32:54.525Z,0
2018-12-10T02:33:55.007Z,0
2018-12-10T02:34:55.013Z,0
2018-12-10T02:35:54.769Z,0
2018-12-10T02:36:55.007Z,0
2018-12-10T02:37:54.475Z,0
2018-12-10T02:38:54.723Z,0
2018-12-10T02:39:54.468Z,0
2018-12-10T02:40:54.731Z,0
2018-12-10T02:41:54.930Z,0
2018-12-10T02:42:54.232Z,0
2018-12-10T02:43:54.437Z,0
2018-12-10T02:44:54.694Z,0
2018-12-10T02:45:54.683Z,0
2018-12-10T02:46:54.912Z,0
2018-12-10T02:47:54.402Z,0
2018-12-10T02:48:54.670Z,0
2018-12-10T02:49:54.897Z,0
2018-12-10T02:50:54.132Z,0
2018-12-10T02:51:54.871Z,0
2018-12-10T02:52:54.612Z,0
2018-12-10T02:53:54.599Z,0
2018-12-10T02:54:54.401Z,0
2018-12-10T02:55:54.339Z,0
2018-12-10T02:56:54.846Z,0
2018-12-10T02:57:54.589Z,0
2018-12-10T02:58:54.338Z,0
2018-12-10T02:59:54.800Z,0
2018-12-10T03:00:54.324Z,0
2018-12-10T03:01:54.802Z,0
2018-12-10T03:02:54.786Z,0
2018-12-10T03:03:54.799Z,0
2018-12-10T03:04:54.551Z,0
2018-12-10T03:05:54.807Z,0
2018-12-10T03:06:54.262Z,0
2018-12-10T03:07:54.766Z,0
2018-12-10T03:08:54.501Z,0
2018-12-10T03:09:54.481Z,0
2018-12-10T03:10:54.273Z,0
2018-12-10T03:11:54.452Z,0
2018-12-10T03:12:54.459Z,0
2018-12-10T03:13:54.700Z,0
2018-12-10T03:14:54.696Z,0
2018-12-10T03:15:54.201Z,0
2018-12-10T03:16:54.669Z,0
2018-12-10T03:17:54.426Z,0
2018-12-10T03:18:54.466Z,0
2018-12-10T03:19:54.400Z,0
2018-12-10T03:20:55.439Z,0
2018-12-10T03:21:54.373Z,0
2018-12-10T03:22:54.387Z,0
2018-12-10T03:23:54.372Z,0
2018-12-10T03:24:54.600Z,0
2018-12-10T03:25:54.607Z,0
2018-12-10T03:26:54.589Z,0
2018-12-10T03:27:54.621Z,0
2018-12-10T03:28:54.446Z,0
2018-12-10T03:29:54.318Z,0
2018-12-10T03:30:54.651Z,0
2018-12-10T03:31:54.663Z,0
2018-12-10T03:32:54.595Z,0
2018-12-10T03:33:54.551Z,0
2018-12-10T03:34:54.051Z,0
2018-12-10T03:35:54.038Z,0
2018-12-10T03:36:54.266Z,0
2018-12-10T03:37:54.022Z,0
2018-12-10T03:38:54.532Z,0
2018-12-10T03:39:54.233Z,0
2018-12-10T03:40:54.263Z,0
2018-12-10T03:41:54.255Z,0
2018-12-10T03:42:54.238Z,0
2018-12-10T03:43:54.329Z,0
2018-12-10T03:44:54.226Z,0
2018-12-10T03:45:54.187Z,0
2018-12-10T03:46:54.499Z,0
2018-12-10T03:47:54.183Z,0
2018-12-10T03:48:54.185Z,0
2018-12-10T03:49:54.428Z,0
2018-12-10T03:50:54.166Z,0
2018-12-10T03:51:54.365Z,0
2018-12-10T03:52:53.876Z,0
2018-12-10T03:53:55.161Z,0
2018-12-10T03:54:54.106Z,0
2018-12-10T03:55:53.860Z,0
2018-12-10T03:56:54.095Z,0
2018-12-10T03:57:54.386Z,0
2018-12-10T03:58:54.331Z,0
2018-12-10T03:59:53.829Z,0
2018-12-10T04:00:53.822Z,0
2018-12-10T04:01:53.811Z,0
2018-12-10T04:02:53.794Z,0
2018-12-10T04:03:54.285Z,0
2018-12-10T04:04:53.824Z,0
2018-12-10T04:05:53.833Z,0
2018-12-10T04:06:54.035Z,0
2018-12-10T04:07:54.029Z,0
2018-12-10T04:08:54.016Z,0
2018-12-10T04:09:54.241Z,0
2018-12-10T04:10:53.986Z,0
2018-12-10T04:11:54.221Z,0
2018-12-10T04:12:54.223Z,0
2018-12-10T04:13:54.002Z,0
2018-12-10T04:14:53.830Z,0
2018-12-10T04:15:53.693Z,0
2018-12-10T04:16:53.961Z,0
2018-12-10T04:17:53.922Z,0
2018-12-10T04:18:53.929Z,0
2018-12-10T04:19:54.285Z,0
2018-12-10T04:20:53.921Z,0
2018-12-10T04:21:53.888Z,0
2018-12-10T04:22:54.132Z,0
2018-12-10T04:23:54.138Z,0
2018-12-10T04:24:53.628Z,0
2018-12-10T04:25:54.130Z,0
2018-12-10T04:26:53.872Z,0
2018-12-10T04:27:54.107Z,0
2018-12-10T04:28:54.163Z,0
2018-12-10T04:29:54.087Z,0
2018-12-10T04:30:54.103Z,0
2018-12-10T04:31:53.859Z,0
2018-12-10T04:32:53.561Z,0
2018-12-10T04:33:53.789Z,0
2018-12-10T04:34:54.049Z,0
2018-12-10T04:35:53.807Z,0
2018-12-10T04:36:53.782Z,0
2018-12-10T04:37:53.269Z,0
2018-12-10T04:38:53.513Z,0
2018-12-10T04:39:53.502Z,0
2018-12-10T04:40:53.254Z,0
2018-12-10T04:41:53.992Z,0
2018-12-10T04:42:53.491Z,0
2018-12-10T04:43:53.984Z,0
2018-12-10T04:44:53.714Z,0
2018-12-10T04:45:53.704Z,0
2018-12-10T04:46:53.243Z,0
2018-12-10T04:47:53.460Z,0
2018-12-10T04:48:53.671Z,0
2018-12-10T04:49:53.409Z,0
2018-12-10T04:50:53.655Z,0
2018-12-10T04:51:53.411Z,0
2018-12-10T04:52:53.892Z,0
2018-12-10T04:53:53.634Z,0
2018-12-10T04:54:53.919Z,0
2018-12-10T04:55:53.865Z,0
2018-12-10T04:56:53.604Z,0
2018-12-10T04:57:53.853Z,0
2018-12-10T04:58:53.589Z,0
2018-12-10T04:59:59.496Z,0
2018-12-10T05:00:53.838Z,0
2018-12-10T05:01:53.323Z,0
2018-12-10T05:02:53.308Z,0
2018-12-10T05:03:53.317Z,0
2018-12-10T05:04:53.050Z,0
2018-12-10T05:05:53.586Z,0
2018-12-10T05:06:53.844Z,0
2018-12-10T05:07:53.519Z,0
2018-12-10T05:08:53.861Z,0
2018-12-10T05:09:53.245Z,0
2018-12-10T05:10:53.519Z,0
2018-12-10T05:11:52.982Z,0
2018-12-10T05:12:53.485Z,0
2018-12-10T05:13:53.231Z,0
2018-12-10T05:14:53.708Z,0
2018-12-10T05:15:53.462Z,0
2018-12-10T05:16:53.708Z,0
2018-12-10T05:17:53.188Z,0
2018-12-10T05:18:53.182Z,0
2018-12-10T05:19:53.662Z,0
2018-12-10T05:20:53.409Z,0
2018-12-10T05:21:53.153Z,0
2018-12-10T05:22:52.905Z,0
2018-12-10T05:23:53.388Z,0
2018-12-10T05:24:53.647Z,0
2018-12-10T05:25:53.121Z,0
2018-12-10T05:26:53.371Z,0
2018-12-10T05:27:53.617Z,0
2018-12-10T05:28:53.405Z,0
2018-12-10T05:29:53.341Z,0
2018-12-10T05:30:52.849Z,0
2018-12-10T05:31:53.069Z,0
2018-12-10T05:32:53.380Z,0
2018-12-10T05:33:53.537Z,0
2018-12-10T05:34:53.073Z,0
2018-12-10T05:35:53.407Z,0
2018-12-10T05:36:53.276Z,0
2018-12-10T05:37:53.268Z,0
2018-12-10T05:38:53.250Z,0
2018-12-10T05:39:53.075Z,0
2018-12-10T05:40:53.245Z,0
2018-12-10T05:41:53.224Z,0
2018-12-10T05:42:52.982Z,0
2018-12-10T05:43:53.458Z,0
2018-12-10T05:44:52.959Z,0
2018-12-10T05:45:53.193Z,0
2018-12-10T05:46:52.943Z,0
2018-12-10T05:47:52.914Z,0
2018-12-10T05:48:53.181Z,0
2018-12-10T05:49:52.919Z,0
2018-12-10T05:50:53.141Z,0
2018-12-10T05:51:53.396Z,0
2018-12-10T05:52:55.423Z,0
2018-12-10T05:53:52.887Z,0
2018-12-10T05:54:52.956Z,0
2018-12-10T05:55:53.348Z,0
2018-12-10T05:56:52.866Z,0
2018-12-10T05:57:53.105Z,0
2018-12-10T05:58:53.307Z,0
2018-12-10T05:59:53.303Z,0
2018-12-10T06:00:53.317Z,0
2018-12-10T06:01:52.797Z,0
2018-12-10T06:02:53.051Z,0
2018-12-10T06:03:53.024Z,0
2018-12-10T06:04:53.247Z,0
2018-12-10T06:05:53.004Z,0
2018-12-10T06:06:52.745Z,0
2018-12-10T06:07:53.242Z,0
2018-12-10T06:08:53.000Z,0
2018-12-10T06:09:53.433Z,0
2018-12-10T06:10:52.470Z,0
2018-12-10T06:11:53.209Z,0
2018-12-10T06:12:52.942Z,0
2018-12-10T06:13:52.560Z,0
2018-12-10T06:14:52.689Z,0
2018-12-10T06:15:53.177Z,0
2018-12-10T06:16:53.185Z,0
2018-12-10T06:17:53.178Z,0
2018-12-10T06:18:52.639Z,0
2018-12-10T06:19:52.886Z,0
2018-12-10T06:20:52.638Z,0
2018-12-10T06:21:53.134Z,0
2018-12-10T06:22:52.847Z,0
2018-12-10T06:23:53.093Z,0
2018-12-10T06:24:53.107Z,0
2018-12-10T06:25:52.584Z,0
2018-12-10T06:26:53.098Z,0
2018-12-10T06:27:53.066Z,0
2018-12-10T06:28:53.048Z,0
2018-12-10T06:29:52.541Z,0
2018-12-10T06:30:52.552Z,0
2018-12-10T06:31:52.524Z,0
2018-12-10T06:32:52.764Z,4
2018-12-10T06:33:52.743Z,4
2018-12-10T06:34:52.740Z,4
2018-12-10T06:35:52.995Z,0
2018-12-10T06:36:52.726Z,4
2018-12-10T06:37:52.473Z,4
2018-12-10T06:38:52.715Z,4
2018-12-10T06:39:52.688Z,8
2018-12-10T06:40:52.677Z,4
2018-12-10T06:41:52.680Z,8
2018-12-10T06:42:52.411Z,8
2018-12-10T06:43:52.919Z,8
2018-12-10T06:44:52.886Z,12
2018-12-10T06:45:52.633Z,16
2018-12-10T06:46:52.403Z,16
2018-12-10T06:47:52.625Z,20
2018-12-10T06:48:52.606Z,24
2018-12-10T06:49:52.595Z,28
2018-12-10T06:50:52.819Z,28
2018-12-10T06:51:52.827Z,32
2018-12-10T06:52:52.329Z,36
2018-12-10T06:53:52.557Z,40
2018-12-10T06:54:52.818Z,44
2018-12-10T06:55:52.559Z,48
2018-12-10T06:56:52.911Z,56
2018-12-10T06:57:52.527Z,56
2018-12-10T06:58:52.533Z,60
2018-12-10T06:59:52.524Z,68
2018-12-10T07:00:52.499Z,72
2018-12-10T07:01:52.245Z,76
2018-12-10T07:02:52.505Z,84
2018-12-10T07:03:52.470Z,88
2018-12-10T07:04:52.736Z,96
2018-12-10T07:05:52.456Z,100
2018-12-10T07:06:52.700Z,108
2018-12-10T07:07:52.699Z,116
2018-12-10T07:08:52.203Z,124
2018-12-10T07:09:52.411Z,132
2018-12-10T07:10:52.005Z,148
2018-12-10T07:11:52.395Z,160
2018-12-10T07:12:52.384Z,176
2018-12-10T07:13:52.197Z,188
2018-12-10T07:14:52.617Z,204
2018-12-10T07:15:52.609Z,224
2018-12-10T07:16:52.111Z,240
2018-12-10T07:17:52.336Z,252
2018-12-10T07:18:52.329Z,264
2018-12-10T07:19:52.666Z,280
2018-12-10T07:20:52.337Z,300
2018-12-10T07:21:52.336Z,320
2018-12-10T07:22:52.567Z,348
2018-12-10T07:23:52.323Z,376
2018-12-10T07:24:52.547Z,408
2018-12-10T07:25:52.525Z,444
2018-12-10T07:26:52.509Z,488
2018-12-10T07:27:52.282Z,536
2018-12-10T07:28:52.517Z,584
2018-12-10T07:29:52.260Z,636
2018-12-10T07:30:52.254Z,676
2018-12-10T07:31:51.963Z,708
2018-12-10T07:32:52.309Z,728
2018-12-10T07:33:52.297Z,740
2018-12-10T07:34:52.436Z,744
2018-12-10T07:35:52.449Z,744
2018-12-10T07:36:52.416Z,740
2018-12-10T07:37:52.165Z,732
2018-12-10T07:38:52.158Z,704
2018-12-10T07:39:51.891Z,676
2018-12-10T07:40:52.149Z,652
2018-12-10T07:41:52.134Z,636
2018-12-10T07:42:51.869Z,624
2018-12-10T07:43:52.369Z,624
2018-12-10T07:44:51.843Z,624
2018-12-10T07:45:52.384Z,636
2018-12-10T07:46:52.336Z,652
2018-12-10T07:47:52.332Z,664
2018-12-10T07:48:52.084Z,676
2018-12-10T07:49:52.051Z,680
2018-12-10T07:50:52.295Z,684
2018-12-10T07:51:52.047Z,676
2018-12-10T07:52:51.781Z,688
2018-12-10T07:53:52.260Z,760
2018-12-10T07:54:52.001Z,848
2018-12-10T07:55:53.472Z,936
2018-12-10T07:56:51.986Z,1044
2018-12-10T07:57:51.978Z,1136
2018-12-10T07:58:51.986Z,1208
2018-12-10T07:59:51.720Z,1240
2018-12-10T08:00:51.725Z,1256
2018-12-10T08:01:51.694Z,1276
2018-12-10T08:02:52.287Z,1284
2018-12-10T08:03:51.931Z,1280
2018-12-10T08:04:52.170Z,1292
2018-12-10T08:05:51.941Z,1316
2018-12-10T08:06:51.742Z,1356
2018-12-10T08:07:51.896Z,1404
2018-12-10T08:08:52.766Z,1456
2018-12-10T08:09:52.120Z,1524
2018-12-10T08:10:52.104Z,1600
2018-12-10T08:11:51.611Z,1676
2018-12-10T08:12:51.614Z,1744
2018-12-10T08:13:52.106Z,1808
2018-12-10T08:14:51.837Z,1844
2018-12-10T08:15:52.163Z,1840
2018-12-10T08:16:51.810Z,1852
2018-12-10T08:17:52.065Z,1848
2018-12-10T08:18:52.082Z,1840
2018-12-10T08:19:52.036Z,1848
2018-12-10T08:20:51.798Z,1880
2018-12-10T08:21:51.814Z,1932
2018-12-10T08:22:52.010Z,1988
2018-12-10T08:23:51.773Z,2044
2018-12-10T08:24:52.016Z,2084
2018-12-10T08:25:51.759Z,2096
2018-12-10T08:26:51.742Z,2108
2018-12-10T08:27:51.976Z,2128
2018-12-10T08:28:58.576Z,2156
2018-12-10T08:31:10.972Z,2232
2018-12-10T08:32:10.436Z,2244
2018-12-10T08:33:10.676Z,2260
2018-12-10T08:34:10.406Z,2300
2018-12-10T08:35:10.907Z,2340
2018-12-10T08:36:10.646Z,2388
2018-12-10T08:37:10.381Z,2456
2018-12-10T08:38:10.402Z,2524
2018-12-10T08:39:10.389Z,2544
2018-12-10T08:40:10.875Z,2532
2018-12-10T08:41:10.399Z,2528
2018-12-10T08:42:10.852Z,2532
2018-12-10T08:43:10.582Z,2544
2018-12-10T08:44:10.826Z,2528
2018-12-10T08:45:10.565Z,2492
2018-12-10T08:46:10.883Z,2480
2018-12-10T08:47:18.598Z,2508
2018-12-10T08:48:10.288Z,2528
2018-12-10T08:49:10.299Z,2544
2018-12-10T08:50:10.540Z,2532
2018-12-10T08:51:11.173Z,2488
2018-12-10T08:52:10.503Z,2368
2018-12-10T08:53:10.813Z,2216
2018-12-10T08:54:10.247Z,2152
2018-12-10T08:55:10.499Z,2188
2018-12-10T08:56:10.224Z,2244
2018-12-10T08:57:11.153Z,2300
2018-12-10T08:58:10.471Z,2232
2018-12-10T08:59:10.700Z,2072
2018-12-10T09:00:10.467Z,1984
2018-12-10T09:01:10.285Z,1940
2018-12-10T09:02:09.935Z,1924
2018-12-10T09:03:10.669Z,1892
2018-12-10T09:04:10.674Z,1892
2018-12-10T09:05:10.393Z,1916
2018-12-10T09:06:10.510Z,1972
2018-12-10T09:07:10.207Z,2068
2018-12-10T09:08:10.134Z,2168
2018-12-10T09:09:10.382Z,2232
2018-12-10T09:10:10.602Z,2324
2018-12-10T09:11:10.119Z,2472
2018-12-10T09:12:10.364Z,2616
2018-12-10T09:13:10.332Z,2736
2018-12-10T09:14:10.081Z,2820
2018-12-10T09:15:10.577Z,2896
2018-12-10T09:16:10.400Z,2928
2018-12-10T09:17:10.307Z,2980
2018-12-10T09:18:10.299Z,3024
2018-12-10T09:19:10.301Z,3088
2018-12-10T09:20:10.035Z,3136
2018-12-10T09:21:10.536Z,3152
2018-12-10T09:22:10.263Z,3184
2018-12-10T09:23:10.263Z,3248
2018-12-10T09:24:10.493Z,3324
2018-12-10T09:25:10.252Z,3372
2018-12-10T09:26:10.506Z,3380
2018-12-10T09:27:10.483Z,3396
2018-12-10T09:28:09.969Z,3464
2018-12-10T09:29:09.963Z,3540
2018-12-10T09:30:10.447Z,3552
2018-12-10T09:31:10.074Z,3540
2018-12-10T09:32:12.370Z,3556
2018-12-10T09:33:10.193Z,3636
2018-12-10T09:34:10.193Z,3748
2018-12-10T09:35:09.930Z,3912
2018-12-10T09:36:10.463Z,4104
2018-12-10T09:37:10.158Z,4192
2018-12-10T09:38:10.391Z,4180
2018-12-10T09:39:10.153Z,4084
2018-12-10T09:40:10.384Z,4020
2018-12-10T09:41:10.198Z,4020
2018-12-10T09:42:10.364Z,4060
2018-12-10T09:43:10.351Z,4124
2018-12-10T09:44:09.853Z,4244
2018-12-10T09:45:10.108Z,4436
2018-12-10T09:46:10.093Z,4640
2018-12-10T09:47:10.092Z,4852
2018-12-10T09:48:09.831Z,5004
2018-12-10T09:49:10.417Z,5116
2018-12-10T09:50:10.052Z,5228
2018-12-10T09:51:10.048Z,5256
2018-12-10T09:52:09.542Z,5428
2018-12-10T09:53:10.287Z,5324
2018-12-10T09:54:10.282Z,5412
2018-12-10T09:55:10.270Z,5740
2018-12-10T09:56:09.827Z,5832
2018-12-10T09:57:09.999Z,5644
2018-12-10T09:58:10.011Z,5656
2018-12-10T09:59:09.990Z,5892
2018-12-10T10:00:10.234Z,6084
2018-12-10T10:01:10.268Z,6220
2018-12-10T10:02:16.868Z,6272
2018-12-10T10:03:09.982Z,6168
2018-12-10T10:04:10.206Z,7144
2018-12-10T10:05:10.210Z,6940
2018-12-10T10:06:10.219Z,6248
2018-12-10T10:07:09.962Z,6400
2018-12-10T10:08:09.959Z,5124
2018-12-10T10:09:09.932Z,4984
2018-12-10T10:10:09.937Z,5004
2018-12-10T10:11:10.196Z,4808
2018-12-10T10:12:09.903Z,5032
2018-12-10T10:13:09.902Z,4540
2018-12-10T10:14:10.160Z,4272
2018-12-10T10:15:10.133Z,3876
2018-12-10T10:16:09.895Z,3236
2018-12-10T10:17:09.871Z,2812
2018-12-10T10:18:09.877Z,3224
2018-12-10T10:19:10.112Z,3796
2018-12-10T10:20:10.099Z,3856
2018-12-10T10:21:15.893Z,3732
2018-12-10T10:22:10.089Z,3396
2018-12-10T10:23:10.068Z,2840
2018-12-10T10:24:09.824Z,2516
2018-12-10T10:25:10.060Z,2328
2018-12-10T10:26:10.072Z,2336
2018-12-10T10:27:10.048Z,2208
2018-12-10T10:28:09.794Z,2276
2018-12-10T10:29:09.548Z,2560
2018-12-10T10:30:09.782Z,2760
2018-12-10T10:31:10.050Z,2788
2018-12-10T10:32:10.038Z,2724
2018-12-10T10:33:10.011Z,2648
2018-12-10T10:34:09.778Z,2528
2018-12-10T10:35:09.768Z,2344
2018-12-10T10:36:09.544Z,2316
2018-12-10T10:37:09.739Z,2516
2018-12-10T10:38:09.977Z,2552
2018-12-10T10:39:09.743Z,2644
2018-12-10T10:40:11.622Z,2668
2018-12-10T10:41:10.196Z,2784
2018-12-10T10:42:09.459Z,3080
2018-12-10T10:43:09.692Z,3064
2018-12-10T10:44:09.732Z,2800
2018-12-10T10:45:09.707Z,2416
2018-12-10T10:46:09.723Z,2104
2018-12-10T10:47:09.506Z,1928
2018-12-10T10:48:09.902Z,1980
2018-12-10T10:49:09.644Z,2312
2018-12-10T10:50:09.902Z,2532
2018-12-10T10:51:09.444Z,2612
2018-12-10T10:52:10.192Z,2588
2018-12-10T10:53:09.610Z,2584
2018-12-10T10:54:09.463Z,2712
2018-12-10T10:55:09.365Z,2860
2018-12-10T10:56:09.678Z,2924
2018-12-10T10:57:09.860Z,2900
2018-12-10T10:58:09.360Z,2800
2018-12-10T10:59:09.376Z,2740
2018-12-10T11:00:09.827Z,2516
2018-12-10T11:01:09.835Z,2488
2018-12-10T11:02:09.562Z,2436
2018-12-10T11:03:09.302Z,2516
2018-12-10T11:04:10.542Z,2868
2018-12-10T11:05:09.558Z,3136
2018-12-10T11:06:09.833Z,3292
2018-12-10T11:07:09.563Z,3320
2018-12-10T11:08:09.510Z,3420
2018-12-10T11:09:18.260Z,3652
2018-12-10T11:10:09.260Z,3692
2018-12-10T11:11:09.261Z,3832
2018-12-10T11:12:09.487Z,3876
2018-12-10T11:13:09.226Z,3904
2018-12-10T11:14:09.471Z,3960
2018-12-10T11:15:09.476Z,4028
2018-12-10T11:16:09.263Z,4128
2018-12-10T11:17:09.450Z,4200
2018-12-10T11:18:08.957Z,4308
2018-12-10T11:19:09.185Z,4256
2018-12-10T11:20:09.731Z,4212
2018-12-10T11:21:09.339Z,4200
2018-12-10T11:22:09.171Z,4280
2018-12-10T11:23:09.661Z,4332
2018-12-10T11:24:09.394Z,4396
2018-12-10T11:25:09.383Z,4384
2018-12-10T11:26:09.380Z,4384
2018-12-10T11:27:09.156Z,4356
2018-12-10T11:28:09.607Z,4320
2018-12-10T11:29:09.387Z,4352
2018-12-10T11:30:09.361Z,4388
2018-12-10T11:31:09.381Z,4432
2018-12-10T11:32:09.329Z,4512
2018-12-10T11:33:09.086Z,4576
2018-12-10T11:34:09.081Z,4648
2018-12-10T11:35:09.316Z,4632
2018-12-10T11:36:09.356Z,4768
2018-12-10T11:37:09.310Z,4828
2018-12-10T11:38:09.304Z,4892
2018-12-10T11:39:09.546Z,4872
2018-12-10T11:40:09.517Z,4796
2018-12-10T11:41:09.292Z,4796
2018-12-10T11:42:09.277Z,4772
2018-12-10T11:43:09.032Z,4652
2018-12-10T11:44:09.507Z,4476
2018-12-10T11:45:09.499Z,4316
2018-12-10T11:46:09.285Z,3988
2018-12-10T11:47:17.802Z,3124
2018-12-10T11:48:09.499Z,3136
2018-12-10T11:49:09.221Z,4024
2018-12-10T11:50:09.569Z,4200
2018-12-10T11:51:08.986Z,4292
2018-12-10T11:52:08.971Z,4344
2018-12-10T11:53:09.210Z,4324
2018-12-10T11:54:10.808Z,4332
2018-12-10T11:55:09.185Z,4276
2018-12-10T11:56:09.238Z,4192
2018-12-10T11:57:09.169Z,4184
2018-12-10T11:58:08.917Z,4212
2018-12-10T11:59:09.406Z,4332
2018-12-10T12:00:09.403Z,4456
2018-12-10T12:01:08.996Z,4352
2018-12-10T12:02:09.387Z,3980
2018-12-10T12:03:09.129Z,3700
2018-12-10T12:04:08.623Z,3568
2018-12-10T12:05:09.144Z,3508
2018-12-10T12:06:08.663Z,3492
2018-12-10T12:07:08.861Z,3544
2018-12-10T12:08:09.336Z,3540
2018-12-10T12:09:08.844Z,3440
2018-12-10T12:10:09.072Z,3256
2018-12-10T12:11:09.321Z,3048
2018-12-10T12:12:11.561Z,3032
2018-12-10T12:13:08.814Z,3048
2018-12-10T12:14:08.807Z,3000
2018-12-10T12:15:09.053Z,3008
2018-12-10T12:16:09.087Z,3076
2018-12-10T12:17:09.042Z,3132
2018-12-10T12:18:09.291Z,3160
2018-12-10T12:19:16.238Z,3160
2018-12-10T12:20:09.272Z,3140
2018-12-10T12:21:09.043Z,3204
2018-12-10T12:22:12.107Z,3308
2018-12-10T12:23:09.226Z,3280
2018-12-10T12:24:08.990Z,3168
2018-12-10T12:25:09.019Z,3128
2018-12-10T12:26:08.829Z,2972
2018-12-10T12:27:08.972Z,2772
2018-12-10T12:28:08.955Z,2556
2018-12-10T12:29:08.934Z,2416
2018-12-10T12:30:08.720Z,2452
2018-12-10T12:31:08.730Z,2796
2018-12-10T12:32:08.941Z,3104
2018-12-10T12:33:09.165Z,3284
2018-12-10T12:34:08.670Z,3504
2018-12-10T12:35:08.905Z,3664
2018-12-10T12:36:08.694Z,3800
2018-12-10T12:37:08.899Z,3860
2018-12-10T12:38:08.620Z,3768
2018-12-10T12:39:08.879Z,3676
2018-12-10T12:40:09.165Z,3644
2018-12-10T12:41:08.915Z,3644
2018-12-10T12:42:08.861Z,3660
2018-12-10T12:43:20.748Z,3412
2018-12-10T12:44:08.830Z,3376
2018-12-10T12:45:08.606Z,3248
2018-12-10T12:46:08.901Z,3104
2018-12-10T12:47:08.566Z,3152
2018-12-10T12:48:08.829Z,3312
2018-12-10T12:49:09.066Z,3488
2018-12-10T12:50:08.544Z,3436
2018-12-10T12:51:09.059Z,3116
2018-12-10T12:52:08.776Z,2664
2018-12-10T12:53:09.030Z,2380
2018-12-10T12:54:08.793Z,2464
2018-12-10T12:55:08.774Z,2616
2018-12-10T12:56:08.552Z,2504
2018-12-10T12:57:08.826Z,2272
2018-12-10T12:58:08.741Z,2092
2018-12-10T12:59:09.329Z,2012
2018-12-10T13:00:08.732Z,1932
2018-12-10T13:01:09.196Z,1988
2018-12-10T13:02:08.952Z,2164
2018-12-10T13:03:08.702Z,2216
2018-12-10T13:04:08.820Z,2188
2018-12-10T13:05:08.457Z,2248
2018-12-10T13:06:13.894Z,2284
2018-12-10T13:07:08.920Z,2224
2018-12-10T13:08:08.935Z,2256
2018-12-10T13:09:08.420Z,2524
2018-12-10T13:10:09.010Z,2384
2018-12-10T13:11:08.605Z,2436
2018-12-10T13:12:08.675Z,2208
2018-12-10T13:13:08.634Z,2176
2018-12-10T13:14:08.875Z,2304
2018-12-10T13:15:08.618Z,2476
2018-12-10T13:16:08.190Z,2744
2018-12-10T13:17:08.623Z,3096
2018-12-10T13:18:08.845Z,3572
2018-12-10T13:19:08.596Z,4008
2018-12-10T13:20:08.851Z,4216
2018-12-10T13:21:08.397Z,4280
2018-12-10T13:22:08.596Z,4180
2018-12-10T13:23:08.569Z,3904
2018-12-10T13:24:08.603Z,4276
2018-12-10T13:25:08.057Z,4152
2018-12-10T13:26:08.839Z,3916
2018-12-10T13:27:08.291Z,3712
2018-12-10T13:28:08.553Z,3528
2018-12-10T13:29:09.055Z,3176
2018-12-10T13:30:08.273Z,2904
2018-12-10T13:31:08.767Z,2936
2018-12-10T13:32:08.812Z,2840
2018-12-10T13:33:08.505Z,2732
2018-12-10T13:34:08.485Z,2692
2018-12-10T13:35:08.730Z,2692
2018-12-10T13:36:08.541Z,2564
2018-12-10T13:37:08.718Z,2532
2018-12-10T13:38:17.146Z,2552
2018-12-10T13:39:08.703Z,2548
2018-12-10T13:40:08.679Z,2440
2018-12-10T13:41:08.701Z,2420
2018-12-10T13:42:08.433Z,2464
2018-12-10T13:43:08.419Z,2508
2018-12-10T13:44:08.175Z,2532
2018-12-10T13:45:08.435Z,2492
2018-12-10T13:46:08.637Z,2444
2018-12-10T13:47:08.394Z,2360
2018-12-10T13:48:08.639Z,2288
2018-12-10T13:49:08.495Z,2256
2018-12-10T13:50:08.636Z,2260
2018-12-10T13:51:08.675Z,2244
2018-12-10T13:52:13.924Z,2244
2018-12-10T13:53:08.354Z,2248
2018-12-10T13:54:11.069Z,2232
2018-12-10T13:55:08.376Z,2204
2018-12-10T13:56:08.622Z,2172
2018-12-10T13:57:08.084Z,2152
2018-12-10T13:58:09.619Z,2128
2018-12-10T13:59:08.625Z,2108
2018-12-10T14:00:08.300Z,2088
2018-12-10T14:01:08.116Z,2072
2018-12-10T14:02:08.539Z,2060
2018-12-10T14:03:08.291Z,2052